Terminal Aerodrome Forecast
Issued by NWS

Home | Current Version | Previous Version | Text Only | Print | Product List | Glossary Off
Versions: 1 2 3 4 5 6 7 8 9 10 11 12 13 14 15 16

000
FTUS43 KIWX 311100
TAFSBN
TAF
KSBN 311137Z 3112/0112 21007KT P6SM FEW070
     FM311500 22012KT P6SM SCT050 BKN200
     FM010300 23007KT 2SM -SN OVC020
     FM010700 VRB04KT 1SM -SN OVC008=

USA.gov is the U.S. government's official web portal to all federal, state and local government web resources and services.